createdAt,value
2017-10-04T00:00:34.142Z,0
2017-10-04T00:01:14.726Z,0
2017-10-04T00:01:55.301Z,0
2017-10-04T00:02:35.875Z,0
2017-10-04T00:03:16.452Z,0
2017-10-04T00:03:57.023Z,0
2017-10-04T00:04:37.588Z,0
2017-10-04T00:05:18.157Z,0
2017-10-04T00:06:13.302Z,0
2017-10-04T00:06:53.887Z,0
2017-10-04T00:07:34.467Z,0
2017-10-04T00:08:15.048Z,0
2017-10-04T00:08:55.621Z,0
2017-10-04T00:09:36.217Z,0
2017-10-04T00:10:16.792Z,0
2017-10-04T00:10:57.371Z,0
2017-10-04T00:11:37.951Z,0
2017-10-04T00:12:18.524Z,0
2017-10-04T00:12:59.107Z,0
2017-10-04T00:13:39.689Z,0
2017-10-04T00:14:20.251Z,0
2017-10-04T00:15:00.831Z,0
2017-10-04T00:15:41.415Z,0
2017-10-04T00:16:21.997Z,0
2017-10-04T00:17:02.573Z,0
2017-10-04T00:17:43.147Z,0
2017-10-04T00:18:23.730Z,0
2017-10-04T00:19:04.299Z,0
2017-10-04T00:19:44.880Z,0
2017-10-04T00:20:25.455Z,0
2017-10-04T00:21:06.040Z,0
2017-10-04T00:21:46.619Z,0
2017-10-04T00:22:27.189Z,0
2017-10-04T00:23:07.769Z,0
2017-10-04T00:23:48.344Z,0
2017-10-04T00:24:28.936Z,0
2017-10-04T00:25:10.008Z,0
2017-10-04T00:25:50.587Z,0
2017-10-04T00:26:31.161Z,0
2017-10-04T00:27:11.739Z,0
2017-10-04T00:28:12.033Z,0
2017-10-04T00:28:52.601Z,0
2017-10-04T00:29:33.176Z,0
2017-10-04T00:30:13.749Z,0
2017-10-04T00:30:54.315Z,0
2017-10-04T00:31:34.886Z,0
2017-10-04T00:32:15.460Z,0
2017-10-04T00:32:56.028Z,0
2017-10-04T00:33:36.611Z,0
2017-10-04T00:34:17.185Z,0
2017-10-04T00:34:57.756Z,0
2017-10-04T00:35:38.333Z,0
2017-10-04T00:36:18.909Z,0
2017-10-04T00:36:59.493Z,0
2017-10-04T00:37:40.066Z,0
2017-10-04T00:38:20.650Z,0
2017-10-04T00:39:01.237Z,0
2017-10-04T00:39:41.814Z,0
2017-10-04T00:40:22.385Z,0
2017-10-04T00:41:02.968Z,0
2017-10-04T00:41:43.548Z,0
2017-10-04T00:42:24.127Z,0
2017-10-04T00:43:04.698Z,0
2017-10-04T00:43:45.281Z,0
2017-10-04T00:44:25.867Z,0
2017-10-04T00:45:06.442Z,0
2017-10-04T00:45:47.018Z,0
2017-10-04T00:46:27.589Z,0
2017-10-04T00:47:08.172Z,0
2017-10-04T00:47:48.743Z,0
2017-10-04T00:48:29.314Z,0
2017-10-04T00:49:09.894Z,0
2017-10-04T00:49:50.466Z,0
2017-10-04T00:50:31.043Z,0
2017-10-04T00:51:11.625Z,0
2017-10-04T00:51:52.203Z,0
2017-10-04T00:52:32.782Z,0
2017-10-04T00:53:13.354Z,0
2017-10-04T00:53:53.940Z,0
2017-10-04T00:54:34.513Z,0
2017-10-04T00:55:15.091Z,0
2017-10-04T00:55:55.662Z,0
2017-10-04T00:56:36.237Z,0
2017-10-04T00:57:16.822Z,0
2017-10-04T00:57:57.401Z,0
2017-10-04T00:58:37.974Z,0
2017-10-04T00:59:18.549Z,0
2017-10-04T00:59:59.108Z,0
2017-10-04T01:00:39.695Z,0
2017-10-04T01:01:20.268Z,0
2017-10-04T01:02:00.841Z,0
2017-10-04T01:02:41.419Z,0
2017-10-04T01:03:22.007Z,0
2017-10-04T01:04:02.573Z,0
2017-10-04T01:04:43.142Z,0
2017-10-04T01:05:23.714Z,0
2017-10-04T01:06:04.286Z,0
2017-10-04T01:06:44.866Z,0
2017-10-04T01:07:25.430Z,0
2017-10-04T01:08:06.015Z,0
2017-10-04T01:08:46.592Z,0
2017-10-04T01:09:27.169Z,0
2017-10-04T01:10:07.734Z,0
2017-10-04T01:10:48.306Z,0
2017-10-04T01:11:28.877Z,0
2017-10-04T01:12:09.448Z,0
2017-10-04T01:12:50.024Z,0
2017-10-04T01:13:30.607Z,0
2017-10-04T01:14:11.189Z,0
2017-10-04T01:14:51.748Z,0
2017-10-04T01:15:32.330Z,0
2017-10-04T01:16:12.905Z,0
2017-10-04T01:16:53.489Z,0
2017-10-04T01:17:34.060Z,0
2017-10-04T01:18:14.633Z,0
2017-10-04T01:18:55.206Z,0
2017-10-04T01:19:35.779Z,0
2017-10-04T01:20:16.341Z,0
2017-10-04T01:20:56.910Z,0
2017-10-04T01:21:37.488Z,0
2017-10-04T01:22:18.064Z,0
2017-10-04T01:22:58.637Z,0
2017-10-04T01:23:39.222Z,0
2017-10-04T01:24:19.804Z,0
2017-10-04T01:26:37.760Z,0
2017-10-04T01:27:18.324Z,0
2017-10-04T01:27:58.884Z,0
2017-10-04T01:28:39.464Z,0
2017-10-04T01:29:20.061Z,0
2017-10-04T01:30:00.618Z,0
2017-10-04T01:30:41.191Z,0
2017-10-04T01:31:21.771Z,0
2017-10-04T01:32:02.353Z,0
2017-10-04T01:32:42.915Z,0
2017-10-04T01:33:23.487Z,0
2017-10-04T01:34:04.056Z,0
2017-10-04T01:34:44.635Z,0
2017-10-04T01:35:25.200Z,0
2017-10-04T01:36:05.769Z,0
2017-10-04T01:37:01.156Z,0
2017-10-04T01:37:41.726Z,0
2017-10-04T01:38:22.302Z,0
2017-10-04T01:39:02.873Z,0
2017-10-04T01:39:43.446Z,0
2017-10-04T01:40:24.021Z,0
2017-10-04T01:41:04.598Z,0
2017-10-04T01:41:45.153Z,0
2017-10-04T01:42:25.736Z,0
2017-10-04T01:43:06.314Z,0
2017-10-04T01:43:46.892Z,0
2017-10-04T01:44:27.480Z,0
2017-10-04T01:45:08.062Z,0
2017-10-04T01:45:48.637Z,0
2017-10-04T01:46:29.210Z,0
2017-10-04T01:47:09.789Z,0
2017-10-04T01:47:50.374Z,0
2017-10-04T01:48:30.944Z,0
2017-10-04T01:49:11.522Z,0
2017-10-04T01:51:44.738Z,0
2017-10-04T01:52:25.321Z,0
2017-10-04T01:53:05.888Z,0
2017-10-04T01:53:46.461Z,0
2017-10-04T01:54:27.034Z,0
2017-10-04T01:55:07.618Z,0
2017-10-04T01:55:48.200Z,0
2017-10-04T01:56:28.767Z,0
2017-10-04T01:57:09.354Z,0
2017-10-04T01:57:49.925Z,0
2017-10-04T01:58:30.497Z,0
2017-10-04T01:59:11.069Z,0
2017-10-04T01:59:51.638Z,0
2017-10-04T02:00:32.219Z,0
2017-10-04T02:01:12.795Z,0
2017-10-04T02:01:53.376Z,0
2017-10-04T02:02:33.950Z,0
2017-10-04T02:03:14.535Z,0
2017-10-04T02:03:55.092Z,0
2017-10-04T02:04:35.655Z,0
2017-10-04T02:05:16.232Z,0
2017-10-04T02:05:56.815Z,0
2017-10-04T02:06:37.394Z,0
2017-10-04T02:07:17.977Z,0
2017-10-04T02:07:58.561Z,0
2017-10-04T02:08:39.142Z,0
2017-10-04T02:09:19.716Z,0
2017-10-04T02:10:00.294Z,0
2017-10-04T02:10:40.871Z,0
2017-10-04T02:11:21.456Z,0
2017-10-04T02:12:02.031Z,0
2017-10-04T02:12:42.607Z,0
2017-10-04T02:13:23.187Z,0
2017-10-04T02:14:03.763Z,0
2017-10-04T02:14:44.348Z,0
2017-10-04T02:15:24.926Z,0
2017-10-04T02:16:05.506Z,0
2017-10-04T02:16:46.089Z,0
2017-10-04T02:17:26.659Z,0
2017-10-04T02:18:07.248Z,0
2017-10-04T02:18:47.831Z,0
2017-10-04T02:19:28.411Z,0
2017-10-04T02:20:08.989Z,0
2017-10-04T02:20:49.560Z,0
2017-10-04T02:21:30.137Z,0
2017-10-04T02:22:10.720Z,0
2017-10-04T02:22:51.301Z,0
2017-10-04T02:23:31.886Z,0
2017-10-04T02:24:12.454Z,0
2017-10-04T02:24:53.025Z,0
2017-10-04T02:25:33.610Z,0
2017-10-04T02:26:14.198Z,0
2017-10-04T02:26:54.762Z,0
2017-10-04T02:27:35.330Z,0
2017-10-04T02:28:15.920Z,0
2017-10-04T02:28:56.490Z,0
2017-10-04T02:29:37.067Z,0
2017-10-04T02:30:17.649Z,0
2017-10-04T02:30:58.220Z,0
2017-10-04T02:31:38.802Z,0
2017-10-04T02:32:19.383Z,0
2017-10-04T02:32:59.960Z,0
2017-10-04T02:33:40.542Z,0
2017-10-04T02:34:21.120Z,0
2017-10-04T02:35:01.700Z,0
2017-10-04T02:35:42.282Z,0
2017-10-04T02:36:22.863Z,0
2017-10-04T02:37:03.437Z,0
2017-10-04T02:37:44.011Z,0
2017-10-04T02:38:24.594Z,0
2017-10-04T02:39:05.173Z,0
2017-10-04T02:39:45.747Z,0
2017-10-04T02:40:26.325Z,0
2017-10-04T02:41:06.915Z,0
2017-10-04T02:41:47.473Z,0
2017-10-04T02:42:28.047Z,0
2017-10-04T02:43:08.611Z,0
2017-10-04T02:43:49.185Z,0
2017-10-04T02:44:29.770Z,0
2017-10-04T02:45:10.339Z,0
2017-10-04T02:45:50.917Z,0
2017-10-04T02:46:31.502Z,0
2017-10-04T02:47:12.079Z,0
2017-10-04T02:47:52.653Z,0
2017-10-04T02:48:33.233Z,0
2017-10-04T02:49:13.807Z,0
2017-10-04T02:49:54.385Z,0
2017-10-04T02:50:34.964Z,0
2017-10-04T02:51:15.544Z,0
2017-10-04T02:51:56.123Z,0
2017-10-04T02:52:36.703Z,0
2017-10-04T02:53:17.267Z,0
2017-10-04T02:53:57.847Z,0
2017-10-04T02:54:38.421Z,0
2017-10-04T02:55:18.995Z,0
2017-10-04T02:55:59.570Z,0
2017-10-04T02:56:40.151Z,0
2017-10-04T02:57:20.722Z,0
2017-10-04T02:58:01.305Z,0
2017-10-04T02:58:41.892Z,0
2017-10-04T02:59:22.471Z,0
2017-10-04T03:00:03.048Z,0
2017-10-04T03:00:43.618Z,0
2017-10-04T03:01:24.197Z,0
2017-10-04T03:02:04.777Z,0
2017-10-04T03:02:45.360Z,0
2017-10-04T03:03:25.942Z,0
2017-10-04T03:04:06.517Z,0
2017-10-04T03:04:47.104Z,0
2017-10-04T03:05:27.677Z,0
2017-10-04T03:06:08.251Z,0
2017-10-04T03:07:01.552Z,0
2017-10-04T03:07:42.125Z,0
2017-10-04T03:08:22.687Z,0
2017-10-04T03:09:03.267Z,0
2017-10-04T03:09:43.823Z,0
2017-10-04T03:10:24.397Z,0
2017-10-04T03:11:04.971Z,0
2017-10-04T03:11:45.546Z,0
2017-10-04T03:12:26.142Z,0
2017-10-04T03:13:06.708Z,0
2017-10-04T03:13:47.293Z,0
2017-10-04T03:14:42.601Z,0
2017-10-04T03:15:23.185Z,0
2017-10-04T03:16:03.894Z,0
2017-10-04T03:16:44.475Z,0
2017-10-04T03:17:25.058Z,0
2017-10-04T03:18:05.635Z,0
2017-10-04T03:18:46.199Z,0
2017-10-04T03:19:26.773Z,0
2017-10-04T03:20:07.355Z,0
2017-10-04T03:20:47.932Z,0
2017-10-04T03:21:28.512Z,0
2017-10-04T03:22:09.094Z,0
2017-10-04T03:22:49.673Z,0
2017-10-04T03:23:30.252Z,0
2017-10-04T03:24:10.830Z,0
2017-10-04T03:25:06.126Z,0
2017-10-04T03:25:46.694Z,0
2017-10-04T03:26:27.275Z,0
2017-10-04T03:27:07.854Z,0
2017-10-04T03:27:48.419Z,0
2017-10-04T03:28:28.993Z,0
2017-10-04T03:29:09.565Z,0
2017-10-04T03:29:50.141Z,0
2017-10-04T03:30:30.704Z,0
2017-10-04T03:31:11.260Z,0
2017-10-04T03:31:51.844Z,0
2017-10-04T03:32:32.400Z,0
2017-10-04T03:33:12.970Z,0
2017-10-04T03:33:53.555Z,0
2017-10-04T03:34:34.124Z,0
2017-10-04T03:35:14.703Z,0
2017-10-04T03:35:55.269Z,0
2017-10-04T03:36:35.845Z,0
2017-10-04T03:37:16.417Z,0
2017-10-04T03:37:57.009Z,0
2017-10-04T03:38:37.579Z,0
2017-10-04T03:39:18.157Z,0
2017-10-04T03:39:58.739Z,0
2017-10-04T03:40:39.314Z,0
2017-10-04T03:41:19.893Z,0
2017-10-04T03:42:00.476Z,0
2017-10-04T03:42:41.056Z,0
2017-10-04T03:44:38.799Z,0
2017-10-04T03:45:19.367Z,0
2017-10-04T03:45:59.927Z,0
2017-10-04T03:46:40.491Z,0
2017-10-04T03:47:21.073Z,0
2017-10-04T03:48:01.651Z,0
2017-10-04T03:48:42.216Z,0
2017-10-04T03:49:22.794Z,0
2017-10-04T03:50:03.344Z,0
2017-10-04T03:50:43.907Z,0
2017-10-04T03:51:24.487Z,0
2017-10-04T03:52:05.050Z,0
2017-10-04T03:52:45.625Z,0
2017-10-04T03:53:41.183Z,0
2017-10-04T03:54:21.762Z,0
2017-10-04T03:55:02.328Z,0
2017-10-04T03:55:42.912Z,0
2017-10-04T03:58:00.854Z,0
2017-10-04T03:58:41.431Z,0
2017-10-04T03:59:22.015Z,0
2017-10-04T04:00:02.589Z,0
2017-10-04T04:00:43.171Z,0
2017-10-04T04:01:23.745Z,0
2017-10-04T04:02:04.322Z,0
2017-10-04T04:02:44.898Z,0
2017-10-04T04:03:25.470Z,0
2017-10-04T04:04:06.038Z,0
2017-10-04T04:04:46.621Z,0
2017-10-04T04:05:27.185Z,0
2017-10-04T04:06:22.539Z,0
2017-10-04T04:07:03.128Z,0
2017-10-04T04:07:43.704Z,0
2017-10-04T04:08:24.272Z,0
2017-10-04T04:09:04.849Z,0
2017-10-04T04:09:45.427Z,0
2017-10-04T04:10:25.993Z,0
2017-10-04T04:11:06.560Z,0
2017-10-04T04:11:47.136Z,0
2017-10-04T04:12:27.730Z,0
2017-10-04T04:13:08.304Z,0
2017-10-04T04:13:48.880Z,0
2017-10-04T04:14:29.457Z,0
2017-10-04T04:15:10.032Z,0
2017-10-04T04:15:50.619Z,0
2017-10-04T04:16:31.204Z,0
2017-10-04T04:17:11.776Z,0
2017-10-04T04:17:52.350Z,0
2017-10-04T04:18:32.929Z,0
2017-10-04T04:19:13.510Z,0
2017-10-04T04:19:54.085Z,0
2017-10-04T04:20:34.652Z,0
2017-10-04T04:21:15.226Z,0
2017-10-04T04:21:55.796Z,0
2017-10-04T04:22:36.370Z,0
2017-10-04T04:23:16.946Z,0
2017-10-04T04:23:57.524Z,0
2017-10-04T04:24:38.104Z,0
2017-10-04T04:25:18.682Z,0
2017-10-04T04:25:59.265Z,0
2017-10-04T04:26:39.837Z,0
2017-10-04T04:27:20.419Z,0
2017-10-04T04:28:01.000Z,0
2017-10-04T04:28:41.582Z,0
2017-10-04T04:29:22.153Z,0
2017-10-04T04:30:02.735Z,0
2017-10-04T04:30:43.319Z,0
2017-10-04T04:31:23.902Z,0
2017-10-04T04:32:04.480Z,0
2017-10-04T04:32:45.055Z,0
2017-10-04T04:33:25.634Z,0
2017-10-04T04:34:06.211Z,0
2017-10-04T04:34:46.796Z,0
2017-10-04T04:35:27.368Z,0
2017-10-04T04:36:07.953Z,0
2017-10-04T04:36:48.524Z,0
2017-10-04T04:37:29.099Z,0
2017-10-04T04:38:09.675Z,0
2017-10-04T04:38:50.258Z,0
2017-10-04T04:39:30.834Z,0
2017-10-04T04:40:11.406Z,0
2017-10-04T04:40:51.991Z,0
2017-10-04T04:41:32.568Z,0
2017-10-04T04:42:13.146Z,0
2017-10-04T04:42:53.726Z,0
2017-10-04T04:43:34.312Z,0
2017-10-04T04:44:14.885Z,0
2017-10-04T04:44:55.461Z,0
2017-10-04T04:45:36.035Z,0
2017-10-04T04:46:16.606Z,0
2017-10-04T04:46:57.179Z,0
2017-10-04T04:47:37.756Z,4
2017-10-04T04:48:18.337Z,4
2017-10-04T04:48:58.905Z,4
2017-10-04T04:49:39.488Z,0
2017-10-04T04:50:20.069Z,0
2017-10-04T04:51:00.651Z,4
2017-10-04T04:51:41.222Z,4
2017-10-04T04:52:21.798Z,4
2017-10-04T04:53:02.377Z,4
2017-10-04T04:53:42.954Z,4
2017-10-04T04:54:23.523Z,4
2017-10-04T04:55:04.100Z,8
2017-10-04T04:55:44.665Z,4
2017-10-04T04:56:25.249Z,8
2017-10-04T04:57:05.823Z,8
2017-10-04T04:57:46.401Z,12
2017-10-04T04:58:26.973Z,12
2017-10-04T04:59:07.557Z,12
2017-10-04T04:59:48.133Z,12
2017-10-04T05:00:28.700Z,16
2017-10-04T05:01:09.293Z,16
2017-10-04T05:01:49.867Z,20
2017-10-04T05:02:30.450Z,20
2017-10-04T05:03:11.026Z,24
2017-10-04T05:03:51.608Z,28
2017-10-04T05:04:32.194Z,32
2017-10-04T05:05:12.771Z,36
2017-10-04T05:05:53.346Z,40
2017-10-04T05:06:33.916Z,48
2017-10-04T05:07:14.497Z,56
2017-10-04T05:07:55.070Z,64
2017-10-04T05:08:35.650Z,68
2017-10-04T05:09:16.226Z,76
2017-10-04T05:09:56.805Z,84
2017-10-04T05:10:37.383Z,96
2017-10-04T05:11:17.963Z,108
2017-10-04T05:11:58.540Z,120
2017-10-04T05:12:39.109Z,128
2017-10-04T05:13:19.685Z,144
2017-10-04T05:14:00.271Z,152
2017-10-04T05:14:40.845Z,168
2017-10-04T05:15:21.408Z,180
2017-10-04T05:16:01.986Z,192
2017-10-04T05:16:42.566Z,208
2017-10-04T05:17:23.143Z,228
2017-10-04T05:18:03.716Z,248
2017-10-04T05:18:44.298Z,264
2017-10-04T05:19:24.866Z,284
2017-10-04T05:20:05.439Z,300
2017-10-04T05:20:46.013Z,320
2017-10-04T05:21:26.594Z,344
2017-10-04T05:22:07.166Z,368
2017-10-04T05:22:47.731Z,396
2017-10-04T05:23:28.312Z,424
2017-10-04T05:24:08.893Z,452
2017-10-04T05:24:49.458Z,484
2017-10-04T05:25:30.026Z,516
2017-10-04T05:26:10.609Z,548
2017-10-04T05:26:51.191Z,584
2017-10-04T05:27:46.545Z,632
2017-10-04T05:28:27.119Z,672
2017-10-04T05:29:07.705Z,712
2017-10-04T05:29:48.276Z,756
2017-10-04T05:30:28.856Z,800
2017-10-04T05:31:09.438Z,844
2017-10-04T05:31:50.017Z,892
2017-10-04T05:32:30.603Z,936
2017-10-04T05:33:11.180Z,980
2017-10-04T05:33:51.764Z,1024
2017-10-04T05:34:32.328Z,1072
2017-10-04T05:35:12.910Z,1112
2017-10-04T05:35:53.493Z,1156
2017-10-04T05:36:34.075Z,1196
2017-10-04T05:37:14.651Z,1236
2017-10-04T05:37:55.234Z,1272
2017-10-04T05:38:35.809Z,1308
2017-10-04T05:39:16.388Z,1348
2017-10-04T05:39:56.974Z,1392
2017-10-04T05:40:37.553Z,1444
2017-10-04T05:41:18.162Z,1508
2017-10-04T05:43:15.885Z,1712
2017-10-04T05:43:56.466Z,1772
2017-10-04T05:44:37.056Z,1836
2017-10-04T05:45:17.635Z,1892
2017-10-04T05:45:58.207Z,1956
2017-10-04T05:46:38.793Z,2028
2017-10-04T05:47:19.354Z,2100
2017-10-04T05:47:59.926Z,2188
2017-10-04T05:48:40.511Z,2300
2017-10-04T05:49:21.085Z,2424
2017-10-04T05:50:01.668Z,2532
2017-10-04T05:52:39.886Z,2812
2017-10-04T05:53:20.472Z,2660
2017-10-04T05:54:01.051Z,2520
2017-10-04T05:54:41.633Z,2452
2017-10-04T05:55:22.231Z,2536
2017-10-04T05:56:02.807Z,2512
2017-10-04T05:56:43.339Z,2596
2017-10-04T05:57:23.878Z,2708
2017-10-04T05:58:04.425Z,2772
2017-10-04T05:58:44.981Z,2852
2017-10-04T05:59:25.558Z,2944
2017-10-04T06:00:06.137Z,3104
2017-10-04T06:00:46.688Z,3300
2017-10-04T06:01:27.257Z,3400
2017-10-04T06:02:23.553Z,3304
2017-10-04T06:03:04.125Z,3160
2017-10-04T06:03:44.712Z,3072
2017-10-04T06:04:25.263Z,3116
2017-10-04T06:05:05.825Z,3172
2017-10-04T06:05:46.409Z,3192
2017-10-04T06:06:26.973Z,3212
2017-10-04T06:07:07.550Z,3288
2017-10-04T06:07:48.126Z,3312
2017-10-04T06:08:28.693Z,3292
2017-10-04T06:09:09.262Z,3316
2017-10-04T06:09:49.835Z,3460
2017-10-04T06:10:30.408Z,3928
2017-10-04T06:11:10.988Z,4356
2017-10-04T06:11:51.561Z,4132
2017-10-04T06:12:32.121Z,3668
2017-10-04T06:13:12.697Z,3288
2017-10-04T06:13:53.287Z,3120
2017-10-04T06:14:33.837Z,3108
2017-10-04T06:15:14.416Z,3088
2017-10-04T06:15:54.982Z,3052
2017-10-04T06:16:35.563Z,2948
2017-10-04T06:17:16.140Z,2800
2017-10-04T06:17:56.715Z,2732
2017-10-04T06:18:37.282Z,2688
2017-10-04T06:19:17.863Z,2724
2017-10-04T06:19:58.433Z,2856
2017-10-04T06:20:39.036Z,2972
2017-10-04T06:21:19.570Z,3128
2017-10-04T06:22:00.113Z,3316
2017-10-04T06:22:40.675Z,3492
2017-10-04T06:23:21.242Z,3716
2017-10-04T06:24:01.803Z,3924
2017-10-04T06:24:42.347Z,4136
2017-10-04T06:25:22.900Z,4316
2017-10-04T06:26:03.455Z,4508
2017-10-04T06:26:44.027Z,4764
2017-10-04T06:27:24.579Z,5040
2017-10-04T06:28:05.146Z,5332
2017-10-04T06:28:45.695Z,5760
2017-10-04T06:31:18.873Z,6472
2017-10-04T06:31:59.439Z,6308
2017-10-04T06:32:40.019Z,6452
2017-10-04T06:33:20.594Z,6700
2017-10-04T06:34:01.163Z,6864
2017-10-04T06:34:41.741Z,6896
2017-10-04T06:35:22.319Z,6896
2017-10-04T06:36:02.884Z,6740
2017-10-04T06:36:43.452Z,6564
2017-10-04T06:37:24.024Z,6644
2017-10-04T06:38:11.598Z,6612
2017-10-04T06:38:52.159Z,7052
2017-10-04T06:39:32.710Z,8048
2017-10-04T06:40:13.276Z,8280
2017-10-04T06:40:53.833Z,8172
2017-10-04T06:41:34.418Z,8868
2017-10-04T06:42:14.996Z,9092
2017-10-04T06:42:55.545Z,9600
2017-10-04T06:43:36.126Z,10116
2017-10-04T06:44:16.654Z,10448
2017-10-04T06:44:57.236Z,10936
2017-10-04T06:45:37.785Z,11932
2017-10-04T06:46:18.343Z,13256
2017-10-04T06:46:58.909Z,14028
2017-10-04T06:47:39.473Z,14764
2017-10-04T06:48:20.055Z,18048
2017-10-04T06:49:00.639Z,18944
2017-10-04T06:49:41.195Z,24544
2017-10-04T06:50:21.770Z,26816
2017-10-04T06:51:02.336Z,27360
2017-10-04T06:51:42.874Z,29824
2017-10-04T06:52:23.447Z,29760
2017-10-04T06:53:03.997Z,29696
2017-10-04T06:53:44.565Z,29728
2017-10-04T06:54:25.128Z,29792
2017-10-04T06:55:05.695Z,29920
2017-10-04T06:55:46.261Z,29824
2017-10-04T06:56:26.820Z,29792
2017-10-04T06:57:07.363Z,29504
2017-10-04T06:57:48.090Z,29312
2017-10-04T06:58:28.639Z,29152
2017-10-04T06:59:09.233Z,29600
2017-10-04T06:59:49.789Z,29920
2017-10-04T07:00:30.337Z,30976
2017-10-04T07:01:10.900Z,29728
2017-10-04T07:01:51.475Z,29600
2017-10-04T07:02:32.029Z,28224
2017-10-04T07:03:12.618Z,27488
2017-10-04T07:03:53.224Z,26048
2017-10-04T07:04:33.781Z,25888
2017-10-04T07:05:14.361Z,26240
2017-10-04T07:05:54.943Z,26016
2017-10-04T07:06:35.520Z,25952
2017-10-04T07:07:16.096Z,25888
2017-10-04T07:07:56.682Z,26592
2017-10-04T07:08:37.258Z,27168
2017-10-04T07:09:17.832Z,27360
2017-10-04T07:09:58.397Z,27808
2017-10-04T07:10:38.998Z,27872
2017-10-04T07:12:56.939Z,25152
2017-10-04T07:13:37.525Z,25152
2017-10-04T07:14:18.102Z,27552
2017-10-04T07:14:58.688Z,27904
2017-10-04T07:15:39.269Z,26432
2017-10-04T07:16:19.844Z,26336
2017-10-04T07:17:00.432Z,24832
2017-10-04T07:17:41.017Z,22912
2017-10-04T07:18:21.598Z,22720
2017-10-04T07:19:02.188Z,22144
2017-10-04T07:19:42.764Z,20128
2017-10-04T07:20:23.353Z,17568
2017-10-04T07:21:03.946Z,17376
2017-10-04T07:21:44.527Z,17792
2017-10-04T07:22:25.091Z,17536
2017-10-04T07:23:05.678Z,16736
2017-10-04T07:23:46.260Z,16896
2017-10-04T07:24:26.831Z,16096
2017-10-04T07:25:07.422Z,19776
2017-10-04T07:25:48.009Z,19296
2017-10-04T07:26:28.598Z,18432
2017-10-04T07:27:09.178Z,19136
2017-10-04T07:27:49.750Z,17824
2017-10-04T07:28:30.342Z,22336
2017-10-04T07:29:10.933Z,16800
2017-10-04T07:29:52.443Z,17440
2017-10-04T07:30:33.032Z,16544
2017-10-04T07:31:13.616Z,17024
2017-10-04T07:31:54.200Z,17376
2017-10-04T07:32:34.786Z,20864
2017-10-04T07:33:15.372Z,27904
2017-10-04T07:34:06.765Z,29280
2017-10-04T07:34:47.345Z,32064
2017-10-04T07:35:27.923Z,32864
2017-10-04T07:36:08.510Z,30304
2017-10-04T07:36:49.091Z,29952
2017-10-04T07:37:29.677Z,30144
2017-10-04T07:38:10.255Z,27200
2017-10-04T07:38:50.837Z,25312
2017-10-04T07:39:31.416Z,21568
2017-10-04T07:40:12.006Z,20928
2017-10-04T07:40:52.597Z,21568
2017-10-04T07:41:33.179Z,22016
2017-10-04T07:42:13.766Z,21376
2017-10-04T07:42:54.356Z,18976
2017-10-04T07:43:34.942Z,17216
2017-10-04T07:44:15.528Z,15904
2017-10-04T07:44:56.097Z,15424
2017-10-04T07:45:36.686Z,15024
2017-10-04T07:46:17.271Z,14988
2017-10-04T07:46:57.859Z,14944
2017-10-04T07:47:38.447Z,14856
2017-10-04T07:48:19.025Z,14700
2017-10-04T07:48:59.612Z,14732
2017-10-04T07:49:40.199Z,14624
2017-10-04T07:50:20.781Z,14468
2017-10-04T07:51:01.363Z,14344
2017-10-04T07:51:41.948Z,14468
2017-10-04T07:52:22.534Z,14604
2017-10-04T07:53:03.122Z,14540
2017-10-04T07:53:43.710Z,14728
2017-10-04T07:54:24.298Z,14672
2017-10-04T07:55:05.710Z,14624
2017-10-04T07:55:46.302Z,14492
2017-10-04T07:56:26.882Z,14400
2017-10-04T07:57:07.467Z,14224
2017-10-04T07:57:48.054Z,14076
2017-10-04T07:58:28.639Z,13892
2017-10-04T07:59:09.225Z,13956
2017-10-04T08:01:06.947Z,14280
2017-10-04T08:01:47.530Z,14184
2017-10-04T08:02:28.108Z,14556
2017-10-04T08:03:08.693Z,14632
2017-10-04T08:03:49.268Z,14720
2017-10-04T08:04:29.854Z,15120
2017-10-04T08:05:10.438Z,15152
2017-10-04T08:05:51.010Z,15428
2017-10-04T08:06:31.587Z,15712
2017-10-04T08:07:12.168Z,15840
2017-10-04T08:07:52.735Z,15872
2017-10-04T08:08:33.317Z,16320
2017-10-04T08:09:13.898Z,16608
2017-10-04T08:09:54.470Z,16768
2017-10-04T08:10:35.055Z,17056
2017-10-04T08:11:15.632Z,17408
2017-10-04T08:11:56.214Z,18368
2017-10-04T08:12:36.779Z,19008
2017-10-04T08:13:17.360Z,18688
2017-10-04T08:13:57.935Z,18944
2017-10-04T08:16:26.057Z,18976
2017-10-04T08:17:06.634Z,19168
2017-10-04T08:17:47.218Z,19392
2017-10-04T08:18:27.805Z,19648
2017-10-04T08:19:08.382Z,19840
2017-10-04T08:19:48.967Z,20480
2017-10-04T08:20:29.547Z,19648
2017-10-04T08:21:10.139Z,19424
2017-10-04T08:21:50.711Z,19840
2017-10-04T08:22:31.288Z,20416
2017-10-04T08:23:11.865Z,21504
2017-10-04T08:23:52.446Z,22304
2017-10-04T08:24:33.029Z,23360
2017-10-04T08:25:13.613Z,25280
2017-10-04T08:25:54.192Z,27968
2017-10-04T08:26:34.780Z,30368
2017-10-04T08:27:15.360Z,30176
2017-10-04T08:27:55.940Z,30208
2017-10-04T08:28:36.519Z,30144
2017-10-04T08:29:17.099Z,27584
2017-10-04T08:31:35.045Z,24768
2017-10-04T08:32:15.639Z,24960
2017-10-04T08:32:56.231Z,23552
2017-10-04T08:33:36.807Z,25248
2017-10-04T08:34:17.387Z,26400
2017-10-04T08:34:57.974Z,26816
2017-10-04T08:35:38.566Z,24928
2017-10-04T08:36:19.139Z,23904
2017-10-04T08:36:59.717Z,24736
2017-10-04T08:37:40.286Z,25312
2017-10-04T08:38:20.867Z,24896
2017-10-04T08:39:01.440Z,27360
2017-10-04T08:39:42.028Z,27680
2017-10-04T08:40:22.611Z,25664
2017-10-04T08:41:03.197Z,22560
2017-10-04T08:41:43.769Z,21632
2017-10-04T08:44:11.875Z,29344
2017-10-04T08:44:52.473Z,38656
2017-10-04T08:45:33.052Z,38368
2017-10-04T08:46:13.636Z,46720
2017-10-04T08:46:54.217Z,38240
2017-10-04T08:47:34.797Z,49248
2017-10-04T08:48:15.383Z,46944
2017-10-04T08:48:55.960Z,40864
2017-10-04T08:49:36.541Z,36384
2017-10-04T08:50:17.130Z,39328
2017-10-04T08:50:57.707Z,43008
2017-10-04T08:51:38.288Z,39776
2017-10-04T08:52:18.862Z,35968
2017-10-04T08:53:00.035Z,35488
2017-10-04T08:53:40.615Z,42304
2017-10-04T08:54:21.202Z,47008
2017-10-04T08:55:01.784Z,43168
2017-10-04T08:55:42.371Z,39360
2017-10-04T08:56:22.940Z,42176
2017-10-04T08:57:03.530Z,49728
2017-10-04T08:57:44.106Z,42816
2017-10-04T08:58:24.675Z,41856
2017-10-04T08:59:05.254Z,40864
2017-10-04T08:59:45.838Z,45504
2017-10-04T09:00:26.426Z,44032
2017-10-04T09:01:07.003Z,45152
2017-10-04T09:01:47.591Z,43872
2017-10-04T09:02:28.181Z,32160
2017-10-04T09:03:08.760Z,32672
2017-10-04T09:03:49.344Z,33664
2017-10-04T09:04:29.934Z,37056
2017-10-04T09:05:10.510Z,37344
2017-10-04T09:05:51.106Z,42336
2017-10-04T09:08:09.096Z,55584
2017-10-04T09:08:49.678Z,63008
2017-10-04T09:09:30.263Z,67584
2017-10-04T09:10:10.843Z,66560
2017-10-04T09:10:51.425Z,61920
2017-10-04T09:11:32.018Z,54112
2017-10-04T09:12:12.600Z,52480
2017-10-04T09:12:53.212Z,51328
2017-10-04T09:13:33.803Z,49024
2017-10-04T09:14:14.382Z,44320
2017-10-04T09:14:54.970Z,39808
2017-10-04T09:15:35.563Z,41216
2017-10-04T09:16:16.157Z,39840
2017-10-04T09:16:56.738Z,39840
2017-10-04T09:17:37.331Z,44032
2017-10-04T09:18:17.930Z,43584
2017-10-04T09:18:58.521Z,44608
2017-10-04T09:19:39.099Z,46272
2017-10-04T09:20:19.700Z,44160
2017-10-04T09:21:00.284Z,42816
2017-10-04T09:21:40.870Z,39264
2017-10-04T09:22:21.464Z,38240
2017-10-04T09:23:02.054Z,39392
2017-10-04T09:23:42.653Z,34336
2017-10-04T09:24:23.232Z,38112
2017-10-04T09:25:03.827Z,44768
2017-10-04T09:25:44.410Z,48384
2017-10-04T09:26:24.999Z,47008
2017-10-04T09:27:05.590Z,45536
2017-10-04T09:27:46.166Z,42624
2017-10-04T09:28:26.765Z,36288
2017-10-04T09:29:07.356Z,30560
2017-10-04T09:29:47.951Z,29728
2017-10-04T09:30:28.527Z,32992
2017-10-04T09:31:09.120Z,36096
2017-10-04T09:31:49.730Z,38048
2017-10-04T09:32:30.323Z,33920
2017-10-04T09:34:28.076Z,30912
2017-10-04T09:35:08.660Z,28800
2017-10-04T09:35:49.249Z,28800
2017-10-04T09:36:29.829Z,26240
2017-10-04T09:37:10.414Z,25568
2017-10-04T09:37:51.002Z,25920
2017-10-04T09:38:31.587Z,26720
2017-10-04T09:39:12.174Z,25344
2017-10-04T09:39:52.764Z,26752
2017-10-04T09:40:33.353Z,28416
2017-10-04T09:41:13.945Z,29344
2017-10-04T09:41:54.530Z,29024
2017-10-04T09:42:35.122Z,28800
2017-10-04T09:43:15.724Z,28896
2017-10-04T09:43:56.295Z,27008
2017-10-04T09:44:36.868Z,27456
2017-10-04T09:47:10.096Z,38624
2017-10-04T09:49:28.026Z,45376
2017-10-04T09:50:08.623Z,44512
2017-10-04T09:50:49.198Z,50144
2017-10-04T09:51:29.783Z,36224
2017-10-04T09:52:10.374Z,29088
2017-10-04T09:52:50.965Z,22336
2017-10-04T09:53:31.550Z,20768